Time;durP1;ratioP1;P1;durP2;ratioP2;P2;SDS_P1;SDS_P2;PMS_P1;PMS_P2;Temp;Humidity;BMP_temperature;BMP_pressure;BME280_temperature;BME280_humidity;BME280_pressure;Samples;Min_cycle;Max_cycle;Signal;HPM_P1;HPM_P2
2021/10/13 00:00:08;;;;;;;2.67;1.08;;;;;;;;;;5014786;28;20060;-85
2021/10/13 00:02:34;;;;;;;1.98;1.15;;;;;;;;;;5015163;28;20049;-85
2021/10/13 00:05:02;;;;;;;2.70;1.27;;;;;;;;;;5016320;28;20054;-85
2021/10/13 00:07:29;;;;;;;2.63;1.13;;;;;;;;;;5015454;28;20046;-85
2021/10/13 00:09:57;;;;;;;3.70;1.33;;;;;;;;;;5015785;28;20049;-85
2021/10/13 00:12:24;;;;;;;1.25;0.80;;;;;;;;;;5015705;28;20038;-83
2021/10/13 00:14:55;;;;;;;1.67;0.90;;;;;;;;;;5018839;28;20050;-85
2021/10/13 00:17:21;;;;;;;1.58;0.95;;;;;;;;;;5016753;28;20050;-84
2021/10/13 00:19:48;;;;;;;2.38;1.05;;;;;;;;;;5016107;28;20054;-85
2021/10/13 00:22:16;;;;;;;3.67;1.33;;;;;;;;;;5017946;28;20046;-84
2021/10/13 00:24:43;;;;;;;1.92;1.20;;;;;;;;;;5018329;28;20056;-84
2021/10/13 00:27:09;;;;;;;2.58;1.05;;;;;;;;;;5016380;28;20096;-84
2021/10/13 00:29:36;;;;;;;3.00;1.52;;;;;;;;;;5017555;28;20045;-85
2021/10/13 00:32:04;;;;;;;3.40;1.30;;;;;;;;;;5017323;28;20053;-85
2021/10/13 00:34:35;;;;;;;3.05;1.20;;;;;;;;;;4999817;28;20045;-85
2021/10/13 00:37:04;;;;;;;1.52;1.05;;;;;;;;;;5020273;28;20116;-85
2021/10/13 00:39:33;;;;;;;2.25;1.10;;;;;;;;;;5019042;28;20053;-85
2021/10/13 00:42:00;;;;;;;4.20;1.17;;;;;;;;;;5019199;28;20042;-85
2021/10/13 00:44:29;;;;;;;2.80;1.10;;;;;;;;;;5020051;28;20049;-85
2021/10/13 00:46:57;;;;;;;2.08;1.00;;;;;;;;;;5025858;28;20042;-85
2021/10/13 00:49:26;;;;;;;2.13;1.10;;;;;;;;;;5032473;28;20042;-84
2021/10/13 00:51:52;;;;;;;3.28;0.90;;;;;;;;;;5019910;28;20049;-84
2021/10/13 00:54:19;;;;;;;2.30;1.00;;;;;;;;;;5015520;28;20145;-85
2021/10/13 00:56:48;;;;;;;2.72;1.10;;;;;;;;;;5015919;28;20340;-84
2021/10/13 00:59:14;;;;;;;2.15;0.90;;;;;;;;;;5017432;28;20042;-84
2021/10/13 01:04:21;;;;;;;3.10;1.20;;;;;;;;;;5037910;28;20056;-84
2021/10/13 01:06:53;;;;;;;3.55;1.80;;;;;;;;;;5041782;28;20053;-85
2021/10/13 01:09:22;;;;;;;4.05;1.75;;;;;;;;;;5040490;28;20049;-84
2021/10/13 01:12:01;;;;;;;3.05;1.65;;;;;;;;;;5043580;28;20490;-85
2021/10/13 01:14:37;;;;;;;2.22;1.33;;;;;;;;;;5039637;28;20045;-84
2021/10/13 01:17:10;;;;;;;;;;;;;;;;;;5035091;28;20084;-85
2021/10/13 01:19:47;;;;;;;3.45;1.77;;;;;;;;;;5048179;28;19924;-84
2021/10/13 01:22:25;;;;;;;3.10;1.73;;;;;;;;;;5051555;28;20052;-85
2021/10/13 01:25:01;;;;;;;4.63;1.95;;;;;;;;;;5041968;28;20081;-85
2021/10/13 01:27:46;;;;;;;3.45;1.73;;;;;;;;;;5043139;28;20383;-84
2021/10/13 01:30:13;;;;;;;3.00;1.63;;;;;;;;;;5039098;28;20059;-85
2021/10/13 01:32:40;;;;;;;3.47;1.85;;;;;;;;;;5040940;28;20049;-85
2021/10/13 01:35:08;;;;;;;4.35;2.58;;;;;;;;;;5038770;28;20048;-85
2021/10/13 01:37:39;;;;;;;4.63;1.90;;;;;;;;;;5053367;28;20046;-85
2021/10/13 01:40:08;;;;;;;3.97;1.95;;;;;;;;;;5037690;28;20041;-85
2021/10/13 01:42:36;;;;;;;3.20;1.58;;;;;;;;;;5037958;28;20045;-85
2021/10/13 01:45:05;;;;;;;7.95;2.05;;;;;;;;;;5031924;28;20072;-85
2021/10/13 01:47:33;;;;;;;4.20;2.40;;;;;;;;;;5038592;28;20041;-85
2021/10/13 01:49:59;;;;;;;3.60;1.85;;;;;;;;;;5036723;28;20056;-85
2021/10/13 01:52:27;;;;;;;4.45;2.45;;;;;;;;;;5020594;28;20081;-85
2021/10/13 01:54:55;;;;;;;5.20;2.80;;;;;;;;;;5048224;28;20056;-85
2021/10/13 01:57:24;;;;;;;5.75;3.00;;;;;;;;;;5038419;28;20125;-85
2021/10/13 01:59:52;;;;;;;6.68;2.92;;;;;;;;;;5038378;28;20046;-85
2021/10/13 02:02:20;;;;;;;4.65;2.50;;;;;;;;;;5037862;28;20084;-85
2021/10/13 02:04:48;;;;;;;5.22;2.70;;;;;;;;;;5037642;28;20041;-86
2021/10/13 02:07:15;;;;;;;5.05;2.88;;;;;;;;;;5042234;28;20386;-84
2021/10/13 02:09:42;;;;;;;7.05;3.08;;;;;;;;;;5036269;28;20049;-85
2021/10/13 02:12:10;;;;;;;7.82;3.72;;;;;;;;;;5036610;28;20046;-84
2021/10/13 02:14:39;;;;;;;4.93;3.22;;;;;;;;;;5036069;28;20053;-85
2021/10/13 02:17:07;;;;;;;6.63;3.55;;;;;;;;;;5037059;28;20047;-85
2021/10/13 02:19:36;;;;;;;4.65;2.70;;;;;;;;;;5028126;28;20115;-85
2021/10/13 02:22:04;;;;;;;5.78;3.20;;;;;;;;;;5037568;28;20045;-85
2021/10/13 02:24:33;;;;;;;7.03;3.63;;;;;;;;;;5036990;28;20049;-85
2021/10/13 02:27:02;;;;;;;8.32;4.25;;;;;;;;;;5031689;28;20120;-85
2021/10/13 02:29:29;;;;;;;8.13;3.40;;;;;;;;;;5037458;28;20053;-85
2021/10/13 02:31:56;;;;;;;5.55;3.42;;;;;;;;;;5035892;28;20052;-86
2021/10/13 02:34:23;;;;;;;6.10;3.47;;;;;;;;;;5035436;28;20399;-86
2021/10/13 02:36:51;;;;;;;6.13;3.30;;;;;;;;;;5043953;28;20052;-85
2021/10/13 02:39:18;;;;;;;4.85;3.00;;;;;;;;;;5040566;28;20049;-85
2021/10/13 02:41:44;;;;;;;7.20;3.95;;;;;;;;;;5049288;28;20061;-86
2021/10/13 02:44:11;;;;;;;6.18;3.63;;;;;;;;;;5040125;28;20057;-85
2021/10/13 02:46:43;;;;;;;6.07;3.22;;;;;;;;;;5037287;28;20046;-87
2021/10/13 02:49:14;;;;;;;6.80;3.25;;;;;;;;;;5055952;28;20052;-86
2021/10/13 02:51:46;;;;;;;6.20;3.28;;;;;;;;;;5040639;28;20054;-86
2021/10/13 02:54:20;;;;;;;6.90;3.42;;;;;;;;;;5037061;28;20076;-86
2021/10/13 02:56:49;;;;;;;5.72;3.35;;;;;;;;;;5037223;28;20057;-87
2021/10/13 02:59:18;;;;;;;6.55;3.25;;;;;;;;;;5036077;28;20060;-86
2021/10/13 03:01:46;;;;;;;6.78;3.72;;;;;;;;;;5032058;28;20045;-88
2021/10/13 03:04:16;;;;;;;9.18;4.47;;;;;;;;;;5048389;28;20053;-88
2021/10/13 03:06:47;;;;;;;5.65;3.25;;;;;;;;;;5049687;28;20132;-90
2021/10/13 03:09:19;;;;;;;7.20;3.60;;;;;;;;;;5033057;28;20090;-89
2021/10/13 03:11:45;;;;;;;5.95;3.72;;;;;;;;;;5016020;28;20041;-87
2021/10/13 03:14:15;;;;;;;6.00;3.50;;;;;;;;;;5031938;28;20506;-89
2021/10/13 03:16:42;;;;;;;9.70;3.80;;;;;;;;;;5018069;28;20046;-88
2021/10/13 03:19:10;;;;;;;6.32;3.85;;;;;;;;;;5031913;28;20046;-89
2021/10/13 03:21:40;;;;;;;6.20;3.50;;;;;;;;;;5031819;28;20057;-88
2021/10/13 03:24:12;;;;;;;6.30;3.22;;;;;;;;;;5033484;28;20116;-87
2021/10/13 03:29:33;;;;;;;5.15;2.67;;;;;;;;;;5017311;28;20056;-88
2021/10/13 03:32:00;;;;;;;5.05;2.70;;;;;;;;;;5048148;28;20053;-88
2021/10/13 03:34:26;;;;;;;5.75;3.00;;;;;;;;;;5032189;28;20041;-90
2021/10/13 03:36:54;;;;;;;7.22;2.63;;;;;;;;;;5051502;28;20127;-90
2021/10/13 03:39:20;;;;;;;3.83;2.22;;;;;;;;;;5031489;28;20141;-88
2021/10/13 03:41:49;;;;;;;5.22;2.28;;;;;;;;;;5031339;28;20079;-89
2021/10/13 03:44:16;;;;;;;6.57;2.85;;;;;;;;;;5031612;28;20083;-89
2021/10/13 03:46:42;;;;;;;3.95;2.13;;;;;;;;;;5041158;28;20421;-88
2021/10/13 03:49:09;;;;;;;4.07;1.90;;;;;;;;;;5037056;28;20408;-89
2021/10/13 03:51:35;;;;;;;3.40;1.95;;;;;;;;;;5021515;28;20157;-87
2021/10/13 03:54:02;;;;;;;3.67;2.00;;;;;;;;;;5034163;28;20046;-87
2021/10/13 03:56:30;;;;;;;3.22;2.20;;;;;;;;;;5011845;28;20149;-87
2021/10/13 03:58:59;;;;;;;3.42;2.15;;;;;;;;;;5038682;28;20061;-86
2021/10/13 04:01:26;;;;;;;4.05;2.05;;;;;;;;;;5031392;28;20053;-88
2021/10/13 04:03:52;;;;;;;3.13;1.90;;;;;;;;;;5031872;28;20053;-88
2021/10/13 04:06:21;;;;;;;6.40;2.08;;;;;;;;;;5032709;28;20045;-87
2021/10/13 04:08:47;;;;;;;4.35;2.20;;;;;;;;;;5031112;28;20049;-88
2021/10/13 04:11:14;;;;;;;4.10;2.30;;;;;;;;;;5032322;28;20064;-88
2021/10/13 04:13:41;;;;;;;4.28;1.75;;;;;;;;;;5038897;28;20064;-87
2021/10/13 04:16:09;;;;;;;4.05;1.80;;;;;;;;;;5047799;28;20037;-87
2021/10/13 04:18:36;;;;;;;4.53;2.33;;;;;;;;;;5038389;28;20056;-89
2021/10/13 04:21:03;;;;;;;5.63;2.40;;;;;;;;;;5043881;28;20115;-87
2021/10/13 04:23:30;;;;;;;3.25;1.80;;;;;;;;;;5054793;28;20464;-87
2021/10/13 04:25:57;;;;;;;4.10;2.38;;;;;;;;;;5040831;28;20046;-86
2021/10/13 04:28:23;;;;;;;3.40;2.22;;;;;;;;;;5001448;28;20057;-86
2021/10/13 04:30:50;;;;;;;6.00;1.75;;;;;;;;;;5036379;28;20052;-86
2021/10/13 04:33:18;;;;;;;4.78;2.13;;;;;;;;;;5042245;28;20041;-86
2021/10/13 04:35:44;;;;;;;4.53;2.28;;;;;;;;;;5036699;28;20050;-87
2021/10/13 04:38:11;;;;;;;3.97;2.22;;;;;;;;;;5038174;28;20065;-87
2021/10/13 04:40:38;;;;;;;5.45;2.70;;;;;;;;;;5041186;28;20049;-88
2021/10/13 04:43:06;;;;;;;6.32;2.55;;;;;;;;;;5044218;28;20053;-87
2021/10/13 04:45:32;;;;;;;4.85;2.80;;;;;;;;;;5044722;28;20046;-88
2021/10/13 04:47:59;;;;;;;6.45;3.30;;;;;;;;;;5047167;28;20121;-88
2021/10/13 04:50:27;;;;;;;4.68;2.40;;;;;;;;;;5047899;28;20061;-88
2021/10/13 04:52:54;;;;;;;5.60;2.75;;;;;;;;;;5029255;28;20041;-87
2021/10/13 04:55:21;;;;;;;5.45;2.72;;;;;;;;;;5034127;28;20052;-86
2021/10/13 04:57:51;;;;;;;4.00;2.40;;;;;;;;;;5036469;28;20045;-86
2021/10/13 05:00:18;;;;;;;7.00;2.90;;;;;;;;;;5035340;28;20092;-86
2021/10/13 05:02:45;;;;;;;4.55;2.28;;;;;;;;;;5028964;28;20045;-86
2021/10/13 05:05:12;;;;;;;4.22;2.30;;;;;;;;;;5034275;28;20502;-87
2021/10/13 05:07:40;;;;;;;4.22;2.22;;;;;;;;;;5035981;28;20041;-87
2021/10/13 05:10:08;;;;;;;3.80;2.50;;;;;;;;;;5035434;28;20049;-87
2021/10/13 05:12:34;;;;;;;7.28;3.05;;;;;;;;;;5036642;28;20045;-86
2021/10/13 05:15:01;;;;;;;5.60;2.40;;;;;;;;;;5040043;28;20052;-87
2021/10/13 05:17:28;;;;;;;8.63;2.80;;;;;;;;;;5036007;28;20072;-86
2021/10/13 05:19:55;;;;;;;4.60;2.60;;;;;;;;;;5036961;28;20050;-86
2021/10/13 05:22:22;;;;;;;6.18;3.00;;;;;;;;;;5037058;28;20072;-86
2021/10/13 05:24:50;;;;;;;6.00;3.42;;;;;;;;;;5036543;28;20081;-87
2021/10/13 05:27:16;;;;;;;14.15;4.85;;;;;;;;;;5038643;28;20049;-87
2021/10/13 05:29:44;;;;;;;9.57;4.43;;;;;;;;;;5020993;28;20053;-86
2021/10/13 05:32:10;;;;;;;7.35;3.22;;;;;;;;;;5019957;28;20057;-87
2021/10/13 05:34:37;;;;;;;6.13;3.25;;;;;;;;;;5017987;28;20046;-86
2021/10/13 05:37:04;;;;;;;8.98;3.92;;;;;;;;;;5016541;28;20054;-87
2021/10/13 05:39:30;;;;;;;7.00;3.30;;;;;;;;;;5032571;28;20081;-86
2021/10/13 05:41:58;;;;;;;9.35;3.13;;;;;;;;;;5017823;28;20057;-87
2021/10/13 05:44:25;;;;;;;5.95;3.25;;;;;;;;;;5016646;28;20046;-89
2021/10/13 05:46:52;;;;;;;5.55;2.88;;;;;;;;;;5035046;28;20064;-87
2021/10/13 05:49:19;;;;;;;5.40;2.75;;;;;;;;;;5035182;28;20409;-86
2021/10/13 05:51:45;;;;;;;19.30;4.00;;;;;;;;;;5036029;28;20048;-87
2021/10/13 05:54:12;;;;;;;7.18;2.60;;;;;;;;;;5019640;28;20128;-87
2021/10/13 05:56:39;;;;;;;6.63;2.83;;;;;;;;;;5018244;28;20099;-86
2021/10/13 05:59:07;;;;;;;7.63;3.58;;;;;;;;;;5035708;28;20053;-87
2021/10/13 06:01:34;;;;;;;7.35;4.10;;;;;;;;;;5034979;28;20095;-87
2021/10/13 06:04:01;;;;;;;7.90;3.50;;;;;;;;;;5036887;28;20052;-86
2021/10/13 06:06:27;;;;;;;8.10;4.15;;;;;;;;;;5035934;28;20056;-87
2021/10/13 06:08:54;;;;;;;6.90;3.42;;;;;;;;;;5036216;28;20517;-86
2021/10/13 06:11:20;;;;;;;6.68;3.65;;;;;;;;;;5018245;28;20049;-87
2021/10/13 06:13:47;;;;;;;5.63;3.45;;;;;;;;;;5034767;28;20513;-87
2021/10/13 06:16:16;;;;;;;6.75;3.60;;;;;;;;;;5043531;28;20054;-87
2021/10/13 06:18:42;;;;;;;22.90;5.70;;;;;;;;;;5036151;28;20487;-86
2021/10/13 06:21:09;;;;;;;9.80;3.78;;;;;;;;;;5035600;28;20041;-87
2021/10/13 06:23:36;;;;;;;6.95;3.58;;;;;;;;;;5034532;28;20045;-87
2021/10/13 06:26:03;;;;;;;8.13;3.15;;;;;;;;;;5032226;28;20060;-87
2021/10/13 06:28:29;;;;;;;5.93;3.42;;;;;;;;;;5056559;28;20072;-87
2021/10/13 06:30:56;;;;;;;9.50;3.70;;;;;;;;;;5056404;28;20277;-86
2021/10/13 06:33:24;;;;;;;9.00;3.97;;;;;;;;;;5055601;28;20056;-87
2021/10/13 06:35:51;;;;;;;7.43;4.03;;;;;;;;;;5055811;28;20080;-88
2021/10/13 06:38:18;;;;;;;6.82;3.97;;;;;;;;;;5023249;28;20099;-86
2021/10/13 06:40:44;;;;;;;5.80;3.17;;;;;;;;;;5051326;28;20050;-87
2021/10/13 06:43:11;;;;;;;5.68;3.10;;;;;;;;;;5037141;28;20050;-87
2021/10/13 06:45:38;;;;;;;16.63;5.05;;;;;;;;;;5036524;28;20065;-86
2021/10/13 06:48:06;;;;;;;6.30;4.32;;;;;;;;;;5035624;28;20421;-86
2021/10/13 06:50:35;;;;;;;7.65;4.10;;;;;;;;;;5036478;28;20052;-87
2021/10/13 06:53:02;;;;;;;12.65;5.05;;;;;;;;;;5035283;28;20080;-87
2021/10/13 06:55:29;;;;;;;20.92;7.00;;;;;;;;;;5035453;28;20041;-87
2021/10/13 06:57:56;;;;;;;15.18;7.07;;;;;;;;;;5035534;28;20046;-87
2021/10/13 07:00:22;;;;;;;10.27;5.70;;;;;;;;;;5034996;28;20052;-86
2021/10/13 07:02:49;;;;;;;13.45;6.13;;;;;;;;;;5036341;28;20049;-86
2021/10/13 07:05:16;;;;;;;11.02;6.95;;;;;;;;;;5036485;28;20502;-86
2021/10/13 07:07:45;;;;;;;14.02;6.28;;;;;;;;;;5033730;28;20081;-88
2021/10/13 07:10:13;;;;;;;10.75;6.28;;;;;;;;;;5034558;28;20066;-87
2021/10/13 07:12:40;;;;;;;11.25;5.68;;;;;;;;;;5018350;28;20085;-87
2021/10/13 07:15:08;;;;;;;11.23;5.88;;;;;;;;;;5035992;28;20049;-86
2021/10/13 07:17:36;;;;;;;11.77;6.60;;;;;;;;;;5036108;28;20056;-86
2021/10/13 07:20:04;;;;;;;10.82;6.55;;;;;;;;;;5034251;28;20499;-87
2021/10/13 07:22:32;;;;;;;12.68;6.15;;;;;;;;;;5036275;28;20041;-87
2021/10/13 07:25:00;;;;;;;11.55;6.45;;;;;;;;;;5036532;28;20053;-87
2021/10/13 07:27:27;;;;;;;8.38;5.68;;;;;;;;;;5036686;28;20073;-87
2021/10/13 07:29:57;;;;;;;9.13;4.97;;;;;;;;;;5037022;28;20049;-87
2021/10/13 07:32:24;;;;;;;8.48;5.43;;;;;;;;;;5036239;28;20050;-87
2021/10/13 07:34:51;;;;;;;8.70;5.38;;;;;;;;;;5036489;28;20247;-87
2021/10/13 07:37:18;;;;;;;11.70;6.55;;;;;;;;;;5035169;28;20045;-87
2021/10/13 07:39:45;;;;;;;10.38;6.35;;;;;;;;;;5036870;28;20046;-88
2021/10/13 07:42:13;;;;;;;9.95;5.63;;;;;;;;;;5019212;28;20073;-88
2021/10/13 07:44:40;;;;;;;11.63;6.13;;;;;;;;;;5037136;28;20049;-87
2021/10/13 07:47:08;;;;;;;10.38;5.45;;;;;;;;;;5037083;28;20409;-87
2021/10/13 07:49:35;;;;;;;12.43;6.07;;;;;;;;;;5019432;28;20072;-88
2021/10/13 07:52:04;;;;;;;9.20;5.97;;;;;;;;;;5037015;28;20056;-87
2021/10/13 07:54:30;;;;;;;9.48;5.63;;;;;;;;;;5036404;28;20060;-88
2021/10/13 07:56:57;;;;;;;11.57;6.43;;;;;;;;;;5037581;28;20049;-88
2021/10/13 07:59:25;;;;;;;9.63;5.47;;;;;;;;;;5037634;28;20473;-87
2021/10/13 08:01:52;;;;;;;9.73;5.38;;;;;;;;;;5035821;28;20041;-88
2021/10/13 08:04:21;;;;;;;9.57;5.18;;;;;;;;;;5035482;28;20088;-89
2021/10/13 08:06:48;;;;;;;11.43;5.97;;;;;;;;;;5036930;28;20081;-88
2021/10/13 08:09:15;;;;;;;9.95;5.88;;;;;;;;;;5036227;28;20045;-88
2021/10/13 08:11:42;;;;;;;8.02;5.40;;;;;;;;;;5038147;28;20046;-89
2021/10/13 08:14:08;;;;;;;8.35;4.88;;;;;;;;;;5039832;28;20052;-88
2021/10/13 08:16:36;;;;;;;7.85;5.32;;;;;;;;;;5026404;28;20045;-86
2021/10/13 08:19:06;;;;;;;8.82;5.40;;;;;;;;;;5047058;28;20050;-87
2021/10/13 08:21:32;;;;;;;8.15;5.50;;;;;;;;;;5039391;28;20076;-86
2021/10/13 08:23:59;;;;;;;7.63;4.95;;;;;;;;;;5037448;28;20053;-85
2021/10/13 08:26:26;;;;;;;8.15;5.38;;;;;;;;;;5037692;28;20057;-85
2021/10/13 08:28:54;;;;;;;10.40;5.82;;;;;;;;;;5039178;28;20053;-85
2021/10/13 08:31:20;;;;;;;7.18;4.95;;;;;;;;;;5038059;28;20808;-85
2021/10/13 08:33:49;;;;;;;8.65;5.00;;;;;;;;;;5038401;28;20053;-85
2021/10/13 08:36:16;;;;;;;8.10;5.65;;;;;;;;;;5037496;28;20067;-86
2021/10/13 08:38:42;;;;;;;6.68;4.50;;;;;;;;;;5038338;28;20050;-85
2021/10/13 08:41:09;;;;;;;7.55;4.72;;;;;;;;;;5037438;28;20049;-85
2021/10/13 08:43:37;;;;;;;9.57;4.70;;;;;;;;;;5038179;28;20076;-86
2021/10/13 08:46:04;;;;;;;5.30;3.50;;;;;;;;;;5036590;28;20045;-86
2021/10/13 08:48:31;;;;;;;7.57;4.88;;;;;;;;;;5038519;28;20046;-86
2021/10/13 08:50:59;;;;;;;6.22;4.53;;;;;;;;;;5038952;28;20060;-86
2021/10/13 08:53:26;;;;;;;6.47;4.05;;;;;;;;;;5040216;28;20056;-87
2021/10/13 08:55:53;;;;;;;11.00;4.68;;;;;;;;;;5038392;28;20048;-86
2021/10/13 08:58:21;;;;;;;7.95;4.07;;;;;;;;;;5037137;28;20053;-86
2021/10/13 09:00:49;;;;;;;7.65;4.53;;;;;;;;;;5039492;28;20057;-86
2021/10/13 09:03:32;;;;;;;7.05;3.97;;;;;;;;;;5036647;28;20525;-87
2021/10/13 09:06:14;;;;;;;6.22;3.97;;;;;;;;;;5039135;28;20050;-86
2021/10/13 09:08:53;;;;;;;6.68;4.00;;;;;;;;;;5039673;28;20042;-86
2021/10/13 09:11:30;;;;;;;6.63;3.45;;;;;;;;;;5022344;28;20084;-86
2021/10/13 09:14:04;;;;;;;4.93;3.72;;;;;;;;;;5040068;28;20056;-86
2021/10/13 09:16:31;;;;;;;5.65;3.50;;;;;;;;;;5039928;28;20661;-86
2021/10/13 09:19:01;;;;;;;7.70;3.45;;;;;;;;;;5021306;28;20164;-86
2021/10/13 09:21:47;;;;;;;4.85;3.40;;;;;;;;;;5039411;28;20089;-85
2021/10/13 09:24:14;;;;;;;5.50;3.35;;;;;;;;;;5040111;28;20045;-87
2021/10/13 09:26:41;;;;;;;6.28;3.65;;;;;;;;;;5041578;28;20076;-86
2021/10/13 09:29:08;;;;;;;5.05;2.80;;;;;;;;;;5041434;28;20053;-87
2021/10/13 09:31:35;;;;;;;5.93;3.45;;;;;;;;;;5033855;28;20104;-85
2021/10/13 09:34:05;;;;;;;4.45;2.95;;;;;;;;;;4987972;28;20092;-86
2021/10/13 09:36:36;;;;;;;5.97;2.95;;;;;;;;;;5021264;28;20433;-86
2021/10/13 09:39:13;;;;;;;5.03;3.25;;;;;;;;;;5021070;28;20130;-86
2021/10/13 09:42:02;;;;;;;6.57;2.90;;;;;;;;;;5016364;28;20492;-86
2021/10/13 09:44:30;;;;;;;3.90;2.55;;;;;;;;;;5017855;28;20387;-85
2021/10/13 09:46:59;;;;;;;6.28;2.70;;;;;;;;;;5017285;28;20056;-86
2021/10/13 09:49:27;;;;;;;4.57;3.08;;;;;;;;;;5034980;28;20095;-86
2021/10/13 09:52:01;;;;;;;7.53;3.75;;;;;;;;;;5036404;28;20049;-85
2021/10/13 09:54:29;;;;;;;15.52;3.85;;;;;;;;;;5036765;28;20103;-86
2021/10/13 09:56:56;;;;;;;24.67;6.13;;;;;;;;;;5036854;28;20095;-87
2021/10/13 09:59:23;;;;;;;7.65;3.17;;;;;;;;;;5036838;28;20053;-86
2021/10/13 10:01:51;;;;;;;6.60;3.15;;;;;;;;;;5018694;28;20049;-85
2021/10/13 10:04:20;;;;;;;5.25;2.55;;;;;;;;;;5037216;28;20464;-86
2021/10/13 10:06:51;;;;;;;4.78;2.38;;;;;;;;;;5035928;28;20053;-87
2021/10/13 10:09:19;;;;;;;5.55;2.88;;;;;;;;;;5038953;28;20053;-85
2021/10/13 10:11:50;;;;;;;5.68;2.70;;;;;;;;;;5039720;28;20092;-85
2021/10/13 10:14:44;;;;;;;4.90;2.53;;;;;;;;;;5038671;28;20442;-86
2021/10/13 10:17:11;;;;;;;4.35;2.60;;;;;;;;;;5037480;28;20085;-87
2021/10/13 10:19:42;;;;;;;7.22;2.63;;;;;;;;;;5035477;28;20050;-88
2021/10/13 10:22:11;;;;;;;5.68;2.17;;;;;;;;;;5036487;28;20398;-86
2021/10/13 10:24:39;;;;;;;3.80;2.10;;;;;;;;;;5037297;28;20076;-86
2021/10/13 10:27:26;;;;;;;4.63;2.42;;;;;;;;;;5038410;28;20064;-87
2021/10/13 10:30:15;;;;;;;4.60;2.10;;;;;;;;;;5038019;28;20049;-86
2021/10/13 10:32:43;;;;;;;4.72;2.10;;;;;;;;;;5036887;28;20045;-86
2021/10/13 10:35:12;;;;;;;3.22;1.95;;;;;;;;;;5034082;28;20092;-87
2021/10/13 10:37:40;;;;;;;3.25;1.92;;;;;;;;;;5017990;28;20088;-87
2021/10/13 10:40:12;;;;;;;4.10;1.75;;;;;;;;;;5037418;28;20096;-86
2021/10/13 10:43:00;;;;;;;3.78;1.77;;;;;;;;;;5036421;28;20049;-86
2021/10/13 10:45:40;;;;;;;3.78;1.95;;;;;;;;;;5033717;28;20057;-87
2021/10/13 10:48:14;;;;;;;3.33;1.67;;;;;;;;;;5037427;28;20491;-87
2021/10/13 10:50:58;;;;;;;3.00;1.67;;;;;;;;;;5047154;28;20041;-88
2021/10/13 10:53:37;;;;;;;5.38;2.67;;;;;;;;;;5035408;28;20068;-86
2021/10/13 10:56:30;;;;;;;3.15;1.63;;;;;;;;;;5035195;28;20120;-86
2021/10/13 10:59:02;;;;;;;3.97;1.60;;;;;;;;;;5032716;28;20053;-85
2021/10/13 11:01:29;;;;;;;4.63;1.70;;;;;;;;;;5035320;28;20491;-86
2021/10/13 11:03:57;;;;;;;3.03;1.40;;;;;;;;;;5035289;28;20045;-88
2021/10/13 11:06:26;;;;;;;3.88;1.60;;;;;;;;;;5035004;28;20053;-87
2021/10/13 11:08:56;;;;;;;3.60;1.48;;;;;;;;;;5035823;28;20092;-87
2021/10/13 11:11:23;;;;;;;3.25;1.40;;;;;;;;;;5036007;28;20053;-86
2021/10/13 11:14:05;;;;;;;5.97;1.77;;;;;;;;;;5036367;28;20089;-87
2021/10/13 11:16:41;;;;;;;3.35;1.23;;;;;;;;;;5035798;28;20049;-89
2021/10/13 11:19:22;;;;;;;3.83;1.05;;;;;;;;;;5034278;28;20058;-87
2021/10/13 11:21:56;;;;;;;2.42;1.13;;;;;;;;;;5035429;28;20132;-85
2021/10/13 11:24:23;;;;;;;2.80;1.00;;;;;;;;;;5034316;28;20091;-88
2021/10/13 11:26:51;;;;;;;2.95;1.23;;;;;;;;;;5034858;28;20413;-88
2021/10/13 11:29:22;;;;;;;4.90;1.30;;;;;;;;;;5034451;28;20505;-85
2021/10/13 11:31:50;;;;;;;3.08;1.33;;;;;;;;;;5034115;28;20644;-86
2021/10/13 11:34:19;;;;;;;1.23;0.73;;;;;;;;;;5018568;28;20111;-87
2021/10/13 11:36:51;;;;;;;3.17;0.90;;;;;;;;;;5033823;28;20056;-86
2021/10/13 11:39:26;;;;;;;3.00;0.90;;;;;;;;;;5036172;28;20045;-87
2021/10/13 11:44:50;;;;;;;2.25;1.10;;;;;;;;;;5030412;28;20051;-88
2021/10/13 11:47:18;;;;;;;2.10;1.23;;;;;;;;;;5035054;28;20766;-87
2021/10/13 11:49:56;;;;;;;2.17;0.90;;;;;;;;;;5034495;28;20056;-86
2021/10/13 11:52:22;;;;;;;1.38;0.95;;;;;;;;;;5015318;28;20068;-88
2021/10/13 11:54:58;;;;;;;3.83;1.85;;;;;;;;;;5030845;28;20143;-88
2021/10/13 11:57:25;;;;;;;2.80;1.55;;;;;;;;;;5016189;28;20046;-87
2021/10/13 12:00:15;;;;;;;2.67;1.10;;;;;;;;;;5017457;28;20042;-88
2021/10/13 12:02:43;;;;;;;6.25;1.77;;;;;;;;;;5019624;28;20097;-87
2021/10/13 12:05:10;;;;;;;1.35;0.98;;;;;;;;;;5036947;28;20410;-89
2021/10/13 12:07:42;;;;;;;6.28;1.20;;;;;;;;;;5031689;28;20057;-88
2021/10/13 12:10:09;;;;;;;7.95;1.90;;;;;;;;;;5032506;28;20053;-87
2021/10/13 12:12:36;;;;;;;3.70;1.20;;;;;;;;;;5032233;28;20057;-87
2021/10/13 12:15:18;;;;;;;3.60;1.10;;;;;;;;;;5038656;28;20085;-86
2021/10/13 12:17:45;;;;;;;2.53;1.08;;;;;;;;;;5032566;28;20042;-87
2021/10/13 12:20:17;;;;;;;2.83;1.20;;;;;;;;;;5015202;28;20049;-85
2021/10/13 12:22:49;;;;;;;2.75;1.58;;;;;;;;;;5011990;28;20103;-86
2021/10/13 12:25:23;;;;;;;3.50;1.38;;;;;;;;;;5013077;28;20049;-85
2021/10/13 12:27:50;;;;;;;2.88;1.08;;;;;;;;;;5012585;28;20388;-88
2021/10/13 12:30:30;;;;;;;1.92;0.80;;;;;;;;;;5027178;28;20049;-86
2021/10/13 12:33:05;;;;;;;2.47;1.00;;;;;;;;;;5030942;28;20132;-87
2021/10/13 12:35:32;;;;;;;1.55;1.00;;;;;;;;;;5030983;28;20042;-86
2021/10/13 12:37:59;;;;;;;2.88;0.93;;;;;;;;;;5032475;28;20053;-86
2021/10/13 12:40:26;;;;;;;2.20;0.93;;;;;;;;;;5031611;28;20778;-85
2021/10/13 12:42:54;;;;;;;1.77;1.02;;;;;;;;;;5032425;28;20049;-85
2021/10/13 12:45:26;;;;;;;6.43;1.30;;;;;;;;;;5034466;28;20081;-85
2021/10/13 12:48:15;;;;;;;2.70;0.85;;;;;;;;;;5023633;28;20132;-86
2021/10/13 12:51:06;;;;;;;0.68;0.52;;;;;;;;;;5035525;28;20053;-86
2021/10/13 12:53:33;;;;;;;1.33;0.68;;;;;;;;;;5032484;28;20049;-86
2021/10/13 12:56:00;;;;;;;2.97;0.50;;;;;;;;;;5030976;28;20073;-85
2021/10/13 12:58:27;;;;;;;1.02;0.70;;;;;;;;;;5033300;28;20050;-85
2021/10/13 13:00:53;;;;;;;1.58;0.50;;;;;;;;;;5033465;28;20076;-86
2021/10/13 13:03:23;;;;;;;2.35;0.65;;;;;;;;;;5019202;28;20107;-86
2021/10/13 13:05:50;;;;;;;2.72;0.73;;;;;;;;;;4998077;28;20132;-86
2021/10/13 13:08:17;;;;;;;3.58;0.60;;;;;;;;;;5000081;28;20497;-86
2021/10/13 13:10:43;;;;;;;2.15;0.57;;;;;;;;;;5016691;28;20438;-86
2021/10/13 13:13:10;;;;;;;0.80;0.50;;;;;;;;;;5031416;28;20498;-86
2021/10/13 13:15:37;;;;;;;2.33;0.50;;;;;;;;;;5018492;28;20136;-86
2021/10/13 13:18:04;;;;;;;1.50;0.50;;;;;;;;;;5035788;28;20046;-86
2021/10/13 13:20:32;;;;;;;2.28;0.70;;;;;;;;;;5036144;28;20057;-89
2021/10/13 13:22:59;;;;;;;1.75;0.73;;;;;;;;;;5035382;28;20119;-87
2021/10/13 13:25:26;;;;;;;1.65;0.85;;;;;;;;;;5034542;28;20056;-86
2021/10/13 13:27:55;;;;;;;3.00;1.00;;;;;;;;;;5036098;28;20049;-85
2021/10/13 13:30:22;;;;;;;0.85;0.60;;;;;;;;;;5045802;28;20045;-87
2021/10/13 13:32:48;;;;;;;1.25;0.60;;;;;;;;;;5040089;28;20057;-85
2021/10/13 13:35:15;;;;;;;3.20;1.10;;;;;;;;;;5037916;28;20533;-86
2021/10/13 13:37:43;;;;;;;4.45;1.30;;;;;;;;;;5036498;28;20414;-87
2021/10/13 13:40:12;;;;;;;3.95;1.45;;;;;;;;;;5037398;28;20156;-86
2021/10/13 13:42:40;;;;;;;3.45;1.30;;;;;;;;;;5035492;28;20199;-86
2021/10/13 13:45:09;;;;;;;2.78;1.13;;;;;;;;;;5038454;28;20049;-87
2021/10/13 13:47:36;;;;;;;3.40;1.25;;;;;;;;;;5039354;28;20049;-84
2021/10/13 13:50:04;;;;;;;5.82;1.42;;;;;;;;;;5037319;28;20107;-85
2021/10/13 13:52:31;;;;;;;4.63;1.92;;;;;;;;;;5037983;28;20056;-86
2021/10/13 13:54:59;;;;;;;3.03;1.50;;;;;;;;;;5034553;28;20053;-85
2021/10/13 13:57:26;;;;;;;11.40;2.08;;;;;;;;;;5036737;28;20057;-86
2021/10/13 13:59:52;;;;;;;3.70;1.15;;;;;;;;;;5019525;28;20053;-85
2021/10/13 14:02:19;;;;;;;1.80;0.82;;;;;;;;;;5016696;28;20061;-86
2021/10/13 14:04:46;;;;;;;2.25;0.90;;;;;;;;;;5037326;28;20379;-87
2021/10/13 14:07:13;;;;;;;3.58;1.58;;;;;;;;;;5034875;28;20565;-86
2021/10/13 14:09:40;;;;;;;2.20;0.60;;;;;;;;;;5034313;28;20053;-86
2021/10/13 14:12:08;;;;;;;2.08;0.60;;;;;;;;;;5036571;28;20042;-86
2021/10/13 14:14:35;;;;;;;2.60;1.00;;;;;;;;;;5037920;28;20049;-85
2021/10/13 14:17:02;;;;;;;5.00;0.70;;;;;;;;;;5035406;28;20041;-86
2021/10/13 14:19:29;;;;;;;0.73;0.35;;;;;;;;;;5038090;28;20056;-86
2021/10/13 14:21:56;;;;;;;2.38;0.70;;;;;;;;;;5038653;28;20049;-86
2021/10/13 14:24:22;;;;;;;1.90;0.88;;;;;;;;;;5036544;28;20442;-85
2021/10/13 14:26:50;;;;;;;2.38;0.80;;;;;;;;;;5035692;28;20049;-86
2021/10/13 14:29:18;;;;;;;1.25;0.55;;;;;;;;;;5036313;28;20045;-87
2021/10/13 14:31:45;;;;;;;1.73;0.75;;;;;;;;;;5044534;28;20041;-87
2021/10/13 14:34:12;;;;;;;0.85;0.43;;;;;;;;;;5018666;28;20045;-86
2021/10/13 14:36:39;;;;;;;0.90;0.30;;;;;;;;;;5034102;28;20486;-87
2021/10/13 14:39:06;;;;;;;0.98;0.40;;;;;;;;;;5032428;28;20048;-88
2021/10/13 14:41:33;;;;;;;0.47;0.30;;;;;;;;;;5034129;28;20513;-86
2021/10/13 14:44:01;;;;;;;0.98;0.57;;;;;;;;;;5033145;28;20049;-87
2021/10/13 14:46:33;;;;;;;2.35;0.57;;;;;;;;;;5034235;28;20053;-86
2021/10/13 14:49:05;;;;;;;3.95;1.10;;;;;;;;;;5028748;28;20056;-86
2021/10/13 14:51:32;;;;;;;2.88;0.77;;;;;;;;;;5034291;28;20045;-87
2021/10/13 14:54:00;;;;;;;2.22;0.95;;;;;;;;;;5032605;28;20132;-87
2021/10/13 14:56:47;;;;;;;;;;;;;;;;;;;;;
2021/10/13 14:59:14;;;;;;;3.63;1.02;;;;;;;;;;5032345;28;20053;-86
2021/10/13 15:01:48;;;;;;;1.25;0.70;;;;;;;;;;5033109;28;20064;-86